Current Conditions
Clear
Conditions



Rainfall
0.00 (mm) - 0.00 (in)
Pressure
29.88 (inHG) - 1011.82 (mb)
Visibility

10.0 (mimiles) - 16.1 (km)
   Temperature
66  °F
19°C
39  °F
Dewpoint
37  %
 Humidity
   Wind Speed
13  mph
11  kts
21  km/h
5.8  m/s
   Wind Direction
 320°
North West
   Airport Data
KMYR
Location Myrtle Beach International 2 mi (3.22 km)
Metar :KMYR 171756Z 32011KT 10SM CLR 19/04 A2988 RMK AO2 SLP117 T01940044 10194 20100 58020
Thu 17th October 13:56 pm
   Raw Metar Info
Raw METAR is the most common format in the world for the transmission of observational weather data. It is highly standardized through the International Civil Aviation Organization (ICAO), which allows it to be understood throughout most of the world.
   API Info
Data Provided by
https://www.checkwx.com/weather/KMYR
   © Info
CSS/SVG/PHP scripts were developed by weather34.com for use in the weather34 template © 2015-2019

Guide Info provided by Metar-Wikipedia